createdAt,value
2022-12-08T00:03:44.740Z,61.96
2022-12-08T00:09:05.837Z,61.61
2022-12-08T00:14:08.333Z,61.57
2022-12-08T00:19:10.764Z,61.27
2022-12-08T00:24:13.452Z,61.62
2022-12-08T00:29:17.519Z,61.61
2022-12-08T00:34:20.640Z,61.66
2022-12-08T00:39:23.191Z,61.45
2022-12-08T00:44:26.350Z,60.71
2022-12-08T00:49:28.892Z,61.40
2022-12-08T00:54:31.530Z,61.27
2022-12-08T00:59:34.129Z,60.87
2022-12-08T01:04:36.770Z,60.93
2022-12-08T01:09:39.082Z,61.18
2022-12-08T01:14:41.736Z,60.89
2022-12-08T01:19:46.453Z,60.83
2022-12-08T01:24:48.910Z,62.06
2022-12-08T01:29:51.897Z,61.83
2022-12-08T01:34:54.347Z,61.93
2022-12-08T01:39:56.863Z,61.86
2022-12-08T01:45:03.099Z,61.84
2022-12-08T01:50:09.078Z,62.51
2022-12-08T01:55:20.919Z,62.34
2022-12-08T02:00:24.247Z,61.95
2022-12-08T02:05:33.588Z,61.69
2022-12-08T02:10:40.039Z,62.15
2022-12-08T02:16:02.286Z,61.36
2022-12-08T02:21:14.297Z,62.00
2022-12-08T02:26:44.502Z,61.83
2022-12-08T02:32:22.094Z,61.87
2022-12-08T02:37:32.375Z,61.97
2022-12-08T02:43:02.610Z,61.73
2022-12-08T02:48:06.136Z,61.76
2022-12-08T02:58:36.480Z,61.32
2022-12-08T03:04:11.138Z,61.56
2022-12-08T03:09:40.187Z,61.25
2022-12-08T03:14:47.762Z,61.27
2022-12-08T03:19:50.526Z,61.71
2022-12-08T03:24:53.946Z,61.84
2022-12-08T03:29:58.895Z,62.33
2022-12-08T03:35:04.666Z,62.71
2022-12-08T03:40:09.603Z,63.24
2022-12-08T03:45:12.439Z,63.06
2022-12-08T03:50:14.934Z,62.75
2022-12-08T03:55:17.305Z,62.92
2022-12-08T04:00:19.936Z,63.62
2022-12-08T04:05:22.465Z,63.23
2022-12-08T04:10:24.780Z,63.74
2022-12-08T04:15:27.215Z,63.58
2022-12-08T04:20:29.507Z,63.32
2022-12-08T04:25:32.059Z,64.20
2022-12-08T04:30:34.447Z,64.17
2022-12-08T04:35:37.203Z,64.07
2022-12-08T04:40:39.978Z,64.16
2022-12-08T04:45:43.123Z,64.92
2022-12-08T04:50:46.297Z,64.56
2022-12-08T04:55:49.950Z,64.54
2022-12-08T05:00:52.547Z,64.66
2022-12-08T05:05:59.556Z,64.80
2022-12-08T05:11:06.687Z,65.08
2022-12-08T05:16:12.564Z,64.98
2022-12-08T05:21:15.258Z,65.49
2022-12-08T05:26:17.841Z,65.29
2022-12-08T05:31:20.629Z,64.78
2022-12-08T05:36:23.182Z,65.07
2022-12-08T05:41:25.849Z,65.69
2022-12-08T05:46:28.853Z,65.52
2022-12-08T05:51:31.900Z,65.39
2022-12-08T05:56:37.604Z,65.51
2022-12-08T06:01:40.201Z,65.45
2022-12-08T06:06:42.677Z,65.16
2022-12-08T06:11:46.781Z,64.70
2022-12-08T06:16:49.264Z,64.94
2022-12-08T06:21:51.744Z,64.42
2022-12-08T06:26:54.269Z,64.27
2022-12-08T06:31:57.102Z,64.46
2022-12-08T06:36:59.823Z,63.84
2022-12-08T06:42:20.788Z,64.13
2022-12-08T06:47:26.209Z,63.92
2022-12-08T06:52:28.958Z,63.36
2022-12-08T06:57:31.455Z,63.69
2022-12-08T07:02:34.030Z,63.68
2022-12-08T07:07:36.636Z,63.18
2022-12-08T07:12:39.172Z,63.04
2022-12-08T07:17:41.707Z,63.59
2022-12-08T07:22:54.311Z,63.15
2022-12-08T07:27:56.865Z,62.82
2022-12-08T07:32:59.350Z,62.71
2022-12-08T07:38:01.824Z,63.19
2022-12-08T07:43:04.281Z,63.45
2022-12-08T07:48:07.334Z,63.91
2022-12-08T07:53:09.850Z,63.01
2022-12-08T07:58:12.547Z,63.22
2022-12-08T08:03:15.210Z,62.68
2022-12-08T08:08:18.540Z,62.68
2022-12-08T08:13:21.165Z,62.89
2022-12-08T08:18:23.673Z,62.60
2022-12-08T08:23:26.259Z,62.56
2022-12-08T08:28:29.364Z,62.31
2022-12-08T08:33:32.449Z,62.29
2022-12-08T08:38:36.542Z,61.72
2022-12-08T08:43:39.552Z,61.31
2022-12-08T08:48:42.692Z,60.98
2022-12-08T08:53:45.210Z,60.86
2022-12-08T08:58:49.660Z,60.57
2022-12-08T09:03:53.263Z,60.44
2022-12-08T09:08:55.816Z,59.88
2022-12-08T09:13:58.282Z,59.45
2022-12-08T09:19:00.805Z,58.96
2022-12-08T09:24:03.387Z,57.95
2022-12-08T09:29:05.914Z,58.04
2022-12-08T09:34:08.494Z,57.23
2022-12-08T09:39:10.964Z,57.29
2022-12-08T09:44:39.607Z,57.32
2022-12-08T09:49:55.465Z,56.97
2022-12-08T09:55:01.779Z,56.65
2022-12-08T10:00:07.101Z,56.47
2022-12-08T10:05:14.740Z,55.75
2022-12-08T10:10:26.074Z,54.89
2022-12-08T10:15:59.489Z,54.92
2022-12-08T10:21:19.185Z,54.96
2022-12-08T10:26:23.052Z,54.56
2022-12-08T10:31:25.868Z,54.33
2022-12-08T10:36:58.678Z,53.83
2022-12-08T10:42:16.004Z,53.54
2022-12-08T10:47:22.188Z,52.39
2022-12-08T10:52:25.426Z,52.11
2022-12-08T10:57:27.999Z,52.49
2022-12-08T11:02:30.603Z,52.59
2022-12-08T11:07:53.173Z,52.16
2022-12-08T11:12:58.275Z,52.00
2022-12-08T11:18:06.956Z,51.44
2022-12-08T11:23:24.935Z,50.68
2022-12-08T11:28:29.045Z,51.00
2022-12-08T11:33:31.948Z,50.55
2022-12-08T11:38:41.206Z,49.27
2022-12-08T11:44:17.519Z,48.82
2022-12-08T11:49:20.999Z,49.65
2022-12-08T11:54:39.049Z,49.75
2022-12-08T11:59:46.507Z,49.18
2022-12-08T12:04:58.461Z,48.65
2022-12-08T12:10:01.064Z,50.04
2022-12-08T12:15:18.757Z,50.25
2022-12-08T12:20:39.112Z,51.00
2022-12-08T12:25:48.625Z,51.27
2022-12-08T12:31:01.378Z,51.66
2022-12-08T12:36:07.307Z,52.38
2022-12-08T12:41:12.299Z,52.58
2022-12-08T12:46:41.339Z,52.79
2022-12-08T12:51:48.093Z,52.36
2022-12-08T12:56:54.736Z,52.85
2022-12-08T13:02:15.800Z,52.92
2022-12-08T13:07:24.050Z,54.00
2022-12-08T13:12:28.505Z,53.75
2022-12-08T13:17:34.092Z,54.32
2022-12-08T13:23:12.340Z,54.68
2022-12-08T13:28:31.491Z,54.55
2022-12-08T13:33:41.582Z,54.41
2022-12-08T13:38:47.607Z,54.43
2022-12-08T13:56:05.465Z,54.70
2022-12-08T14:00:18.413Z,54.58
2022-12-08T14:05:35.245Z,54.69
2022-12-08T14:10:53.503Z,54.26
2022-12-08T14:15:56.096Z,53.90
2022-12-08T14:21:20.647Z,53.78
2022-12-08T14:26:23.564Z,53.75
2022-12-08T14:31:27.663Z,53.82
2022-12-08T14:36:30.506Z,53.32
2022-12-08T14:41:33.673Z,53.30
2022-12-08T14:47:09.268Z,53.27
2022-12-08T14:52:12.743Z,53.20
2022-12-08T14:57:15.909Z,53.07
2022-12-08T15:02:27.393Z,53.17
2022-12-08T15:07:35.635Z,52.59
2022-12-08T15:12:38.231Z,52.86
2022-12-08T15:17:40.650Z,53.14
2022-12-08T15:22:43.367Z,52.88
2022-12-08T15:27:50.419Z,53.15
2022-12-08T15:33:00.635Z,53.10
2022-12-08T15:38:03.182Z,53.12
2022-12-08T15:43:05.691Z,53.15
2022-12-08T15:48:13.914Z,53.08
2022-12-08T15:53:16.753Z,52.96
2022-12-08T16:09:14.717Z,53.11
2022-12-08T16:15:23.019Z,52.86
2022-12-08T16:19:39.789Z,53.23
2022-12-08T16:24:42.290Z,53.05
2022-12-08T16:29:48.489Z,53.11
2022-12-08T16:34:51.446Z,52.85
2022-12-08T16:39:55.940Z,53.05
2022-12-08T16:44:58.919Z,53.24
2022-12-08T16:50:03.933Z,53.26
2022-12-08T16:55:19.558Z,53.03
2022-12-08T17:00:24.740Z,53.05
2022-12-08T17:05:27.765Z,53.19
2022-12-08T17:10:34.635Z,53.26
2022-12-08T17:15:37.131Z,53.21
2022-12-08T17:20:40.693Z,52.64
2022-12-08T17:25:43.173Z,52.85
2022-12-08T17:30:45.628Z,52.74
2022-12-08T17:35:53.085Z,53.02
2022-12-08T17:40:58.624Z,53.16
2022-12-08T17:46:01.747Z,53.33
2022-12-08T17:51:09.098Z,53.00
2022-12-08T17:56:21.491Z,53.63
2022-12-08T18:01:24.443Z,53.57
2022-12-08T18:06:31.081Z,54.19
2022-12-08T18:11:35.766Z,54.03
2022-12-08T18:16:40.568Z,54.03
2022-12-08T18:21:43.813Z,54.19
2022-12-08T18:26:46.604Z,53.88
2022-12-08T18:31:50.105Z,54.05
2022-12-08T18:36:53.090Z,53.68
2022-12-08T18:41:57.839Z,53.86
2022-12-08T18:47:00.573Z,53.80
2022-12-08T18:52:03.113Z,53.68
2022-12-08T18:57:06.375Z,53.29
2022-12-08T19:02:10.553Z,53.43
2022-12-08T19:07:13.848Z,52.94
2022-12-08T19:12:16.481Z,53.11
2022-12-08T19:17:26.171Z,53.50
2022-12-08T19:22:28.789Z,53.26
2022-12-08T19:27:47.884Z,53.08
2022-12-08T19:32:51.163Z,53.24
2022-12-08T19:37:55.079Z,53.63
2022-12-08T19:43:16.451Z,53.23
2022-12-08T19:48:18.947Z,53.01
2022-12-08T19:53:21.451Z,52.80
2022-12-08T19:58:24.013Z,53.32
2022-12-08T20:03:26.674Z,53.57
2022-12-08T20:08:29.320Z,53.54
2022-12-08T20:13:52.161Z,53.40
2022-12-08T20:18:54.798Z,53.94
2022-12-08T20:23:57.320Z,54.26
2022-12-08T20:28:59.843Z,54.50
2022-12-08T20:34:02.503Z,54.58
2022-12-08T20:39:05.054Z,54.67
2022-12-08T20:44:07.999Z,55.27
2022-12-08T20:49:10.560Z,55.13
2022-12-08T20:54:13.300Z,56.25
2022-12-08T20:59:18.298Z,56.92
2022-12-08T21:04:21.955Z,57.18
2022-12-08T21:09:24.762Z,57.58
2022-12-08T21:14:27.619Z,57.99
2022-12-08T21:19:30.391Z,58.27
2022-12-08T21:24:34.765Z,58.32
2022-12-08T21:29:37.422Z,58.47
2022-12-08T21:34:40.077Z,59.16
2022-12-08T21:39:57.542Z,60.02
2022-12-08T21:45:00.186Z,60.29
2022-12-08T21:50:03.129Z,60.40
2022-12-08T21:55:07.136Z,61.16
2022-12-08T22:00:13.707Z,60.96
2022-12-08T22:05:16.420Z,61.21
2022-12-08T22:10:21.195Z,61.03
2022-12-08T22:15:23.692Z,61.15
2022-12-08T22:20:26.340Z,61.28
2022-12-08T22:25:28.848Z,61.23
2022-12-08T22:30:37.205Z,61.72
2022-12-08T22:35:41.402Z,61.96
2022-12-08T22:40:44.030Z,62.27
2022-12-08T22:45:46.972Z,61.89
2022-12-08T22:50:49.660Z,62.08
2022-12-08T22:55:52.304Z,61.80
2022-12-08T23:00:55.013Z,61.79
2022-12-08T23:05:58.060Z,61.97
2022-12-08T23:11:00.664Z,61.94
2022-12-08T23:16:03.229Z,62.21
2022-12-08T23:21:07.853Z,62.52
2022-12-08T23:26:27.931Z,63.06
2022-12-08T23:31:31.177Z,62.93
2022-12-08T23:36:33.907Z,63.01
2022-12-08T23:41:36.470Z,63.27
2022-12-08T23:46:39.242Z,63.76
2022-12-08T23:51:41.933Z,63.79
2022-12-08T23:56:44.579Z,64.08
